Southworth, Washington
Current Conditions -  °F | °C
As of 1:53 AM on Friday 24 Oct 2014 (Local Time) from KBFI Reporting Station
Light Rain Light Rain  
Wind Chill: 51°   Ceiling: 7000
Heat Index: 51°   Visibility: 10mi
Dew Point: 46°   Wind: 8mph
Humidity: 83%   Direction: 150°SSE
Pressure: 30.03"   Gusts: NA
Location:  47.51°N, 122.5°W
Report Text: KBFI 240853Z 15007KT 10SM -RA OVC070 11/08 A3003 RMK AO2 SLP169 P0002 60002 T01060078 51013
Loading
Personal Weather Stations






























Interactive Weather Map
Tropical Storm Tracking
New forecast layout! Learn more

10-Day Weather Forecast

Advertisements
Track Severe Weather on mobile